sensor_id;sensor_type;location;lat;lon;timestamp;P1;durP1;ratioP1;P2;durP2;ratioP2
42714;SDS011;28351;51.480;5.706;2023-04-29T00:00:40;72.35;;;28.88;;
42714;SDS011;28351;51.480;5.706;2023-04-29T00:03:05;67.85;;;26.00;;
42714;SDS011;28351;51.480;5.706;2023-04-29T00:05:32;72.35;;;28.20;;
42714;SDS011;28351;51.480;5.706;2023-04-29T00:07:57;67.85;;;27.02;;
42714;SDS011;28351;51.480;5.706;2023-04-29T00:10:23;61.97;;;24.65;;
42714;SDS011;28351;51.480;5.706;2023-04-29T00:12:49;69.60;;;27.85;;
42714;SDS011;28351;51.480;5.706;2023-04-29T00:15:15;62.17;;;25.73;;
42714;SDS011;28351;51.480;5.706;2023-04-29T00:17:41;60.13;;;24.45;;
42714;SDS011;28351;51.480;5.706;2023-04-29T00:20:16;66.97;;;25.30;;
42714;SDS011;28351;51.480;5.706;2023-04-29T00:22:44;59.33;;;24.65;;
42714;SDS011;28351;51.480;5.706;2023-04-29T00:25:10;68.32;;;25.88;;
42714;SDS011;28351;51.480;5.706;2023-04-29T00:27:36;70.18;;;24.63;;
42714;SDS011;28351;51.480;5.706;2023-04-29T00:30:03;59.42;;;23.50;;
42714;SDS011;28351;51.480;5.706;2023-04-29T00:32:30;62.90;;;24.40;;
42714;SDS011;28351;51.480;5.706;2023-04-29T00:34:56;59.15;;;22.73;;
42714;SDS011;28351;51.480;5.706;2023-04-29T00:37:21;59.45;;;23.38;;
42714;SDS011;28351;51.480;5.706;2023-04-29T00:39:47;60.28;;;24.10;;
42714;SDS011;28351;51.480;5.706;2023-04-29T00:42:14;68.25;;;25.17;;
42714;SDS011;28351;51.480;5.706;2023-04-29T00:44:40;56.75;;;22.35;;
42714;SDS011;28351;51.480;5.706;2023-04-29T00:47:11;54.38;;;21.88;;
42714;SDS011;28351;51.480;5.706;2023-04-29T00:49:40;51.33;;;21.15;;
42714;SDS011;28351;51.480;5.706;2023-04-29T00:52:06;46.90;;;19.73;;
42714;SDS011;28351;51.480;5.706;2023-04-29T00:54:32;53.13;;;21.27;;
42714;SDS011;28351;51.480;5.706;2023-04-29T00:56:59;49.05;;;20.38;;
42714;SDS011;28351;51.480;5.706;2023-04-29T00:59:27;44.78;;;19.83;;
42714;SDS011;28351;51.480;5.706;2023-04-29T01:01:57;49.55;;;20.63;;
42714;SDS011;28351;51.480;5.706;2023-04-29T01:04:41;45.65;;;19.40;;
42714;SDS011;28351;51.480;5.706;2023-04-29T01:15:03;46.00;;;20.45;;
42714;SDS011;28351;51.480;5.706;2023-04-29T01:17:58;47.72;;;20.40;;
42714;SDS011;28351;51.480;5.706;2023-04-29T01:20:29;48.95;;;19.73;;
42714;SDS011;28351;51.480;5.706;2023-04-29T01:22:55;38.50;;;18.02;;
42714;SDS011;28351;51.480;5.706;2023-04-29T01:25:22;41.33;;;17.67;;
42714;SDS011;28351;51.480;5.706;2023-04-29T01:27:56;40.40;;;18.73;;
42714;SDS011;28351;51.480;5.706;2023-04-29T01:38:52;38.22;;;17.75;;
42714;SDS011;28351;51.480;5.706;2023-04-29T01:41:31;43.90;;;18.80;;
42714;SDS011;28351;51.480;5.706;2023-04-29T01:44:03;46.38;;;20.70;;
42714;SDS011;28351;51.480;5.706;2023-04-29T01:46:31;47.97;;;21.35;;
42714;SDS011;28351;51.480;5.706;2023-04-29T01:48:58;44.03;;;19.98;;
42714;SDS011;28351;51.480;5.706;2023-04-29T01:51:23;43.00;;;20.10;;
42714;SDS011;28351;51.480;5.706;2023-04-29T01:53:49;50.75;;;22.45;;
42714;SDS011;28351;51.480;5.706;2023-04-29T01:56:14;46.03;;;21.73;;
42714;SDS011;28351;51.480;5.706;2023-04-29T01:58:40;51.70;;;23.50;;
42714;SDS011;28351;51.480;5.706;2023-04-29T02:01:05;51.45;;;22.45;;
42714;SDS011;28351;51.480;5.706;2023-04-29T02:03:31;47.05;;;21.52;;
42714;SDS011;28351;51.480;5.706;2023-04-29T02:05:57;49.40;;;22.10;;
42714;SDS011;28351;51.480;5.706;2023-04-29T02:08:23;53.28;;;20.85;;
42714;SDS011;28351;51.480;5.706;2023-04-29T02:10:55;51.05;;;22.15;;
42714;SDS011;28351;51.480;5.706;2023-04-29T02:13:21;53.50;;;21.88;;
42714;SDS011;28351;51.480;5.706;2023-04-29T02:15:47;48.53;;;21.92;;
42714;SDS011;28351;51.480;5.706;2023-04-29T02:18:13;51.63;;;22.33;;
42714;SDS011;28351;51.480;5.706;2023-04-29T02:20:39;47.83;;;21.17;;
42714;SDS011;28351;51.480;5.706;2023-04-29T02:23:05;49.25;;;22.83;;
42714;SDS011;28351;51.480;5.706;2023-04-29T02:25:31;56.08;;;22.20;;
42714;SDS011;28351;51.480;5.706;2023-04-29T02:27:56;52.53;;;21.77;;
42714;SDS011;28351;51.480;5.706;2023-04-29T02:30:22;47.10;;;19.88;;
42714;SDS011;28351;51.480;5.706;2023-04-29T02:32:47;48.80;;;19.60;;
42714;SDS011;28351;51.480;5.706;2023-04-29T02:35:13;49.45;;;19.80;;
42714;SDS011;28351;51.480;5.706;2023-04-29T02:37:38;50.83;;;20.88;;
42714;SDS011;28351;51.480;5.706;2023-04-29T02:40:04;45.90;;;20.48;;
42714;SDS011;28351;51.480;5.706;2023-04-29T02:42:34;45.25;;;20.15;;
42714;SDS011;28351;51.480;5.706;2023-04-29T02:44:59;44.20;;;19.55;;
42714;SDS011;28351;51.480;5.706;2023-04-29T02:47:25;48.42;;;19.10;;
42714;SDS011;28351;51.480;5.706;2023-04-29T02:49:50;49.08;;;20.75;;
42714;SDS011;28351;51.480;5.706;2023-04-29T02:52:16;48.40;;;20.42;;
42714;SDS011;28351;51.480;5.706;2023-04-29T02:54:43;45.30;;;20.17;;
42714;SDS011;28351;51.480;5.706;2023-04-29T02:57:08;41.80;;;19.25;;
42714;SDS011;28351;51.480;5.706;2023-04-29T02:59:34;50.22;;;21.45;;
42714;SDS011;28351;51.480;5.706;2023-04-29T03:02:00;52.50;;;22.55;;
42714;SDS011;28351;51.480;5.706;2023-04-29T03:04:26;45.78;;;22.33;;
42714;SDS011;28351;51.480;5.706;2023-04-29T03:06:53;54.17;;;22.55;;
42714;SDS011;28351;51.480;5.706;2023-04-29T03:09:20;45.03;;;20.33;;
42714;SDS011;28351;51.480;5.706;2023-04-29T03:11:46;50.47;;;21.95;;
42714;SDS011;28351;51.480;5.706;2023-04-29T03:14:12;51.20;;;20.98;;
42714;SDS011;28351;51.480;5.706;2023-04-29T03:16:38;51.72;;;21.92;;
42714;SDS011;28351;51.480;5.706;2023-04-29T03:19:03;53.33;;;22.83;;
42714;SDS011;28351;51.480;5.706;2023-04-29T03:21:29;50.30;;;21.55;;
42714;SDS011;28351;51.480;5.706;2023-04-29T03:23:54;52.15;;;22.95;;
42714;SDS011;28351;51.480;5.706;2023-04-29T03:26:20;56.55;;;22.48;;
42714;SDS011;28351;51.480;5.706;2023-04-29T03:28:48;53.33;;;22.77;;
42714;SDS011;28351;51.480;5.706;2023-04-29T03:31:14;57.55;;;22.63;;
42714;SDS011;28351;51.480;5.706;2023-04-29T03:33:40;47.55;;;20.40;;
42714;SDS011;28351;51.480;5.706;2023-04-29T03:36:06;53.30;;;21.65;;
42714;SDS011;28351;51.480;5.706;2023-04-29T03:38:32;52.55;;;21.55;;
42714;SDS011;28351;51.480;5.706;2023-04-29T03:40:58;53.55;;;22.23;;
42714;SDS011;28351;51.480;5.706;2023-04-29T03:43:24;49.90;;;21.08;;
42714;SDS011;28351;51.480;5.706;2023-04-29T03:45:50;53.67;;;21.17;;
42714;SDS011;28351;51.480;5.706;2023-04-29T03:48:19;49.75;;;20.35;;
42714;SDS011;28351;51.480;5.706;2023-04-29T03:50:45;47.78;;;19.10;;
42714;SDS011;28351;51.480;5.706;2023-04-29T03:53:11;47.30;;;19.15;;
42714;SDS011;28351;51.480;5.706;2023-04-29T03:55:37;42.60;;;19.35;;
42714;SDS011;28351;51.480;5.706;2023-04-29T03:58:02;49.53;;;18.75;;
42714;SDS011;28351;51.480;5.706;2023-04-29T04:00:29;47.47;;;19.27;;
42714;SDS011;28351;51.480;5.706;2023-04-29T04:02:55;45.45;;;18.88;;
42714;SDS011;28351;51.480;5.706;2023-04-29T04:05:22;42.13;;;17.73;;
42714;SDS011;28351;51.480;5.706;2023-04-29T04:07:49;45.30;;;19.10;;
42714;SDS011;28351;51.480;5.706;2023-04-29T04:10:16;47.50;;;19.02;;
42714;SDS011;28351;51.480;5.706;2023-04-29T04:12:42;47.33;;;17.92;;
42714;SDS011;28351;51.480;5.706;2023-04-29T04:15:08;44.78;;;18.10;;
42714;SDS011;28351;51.480;5.706;2023-04-29T04:17:34;43.95;;;17.48;;
42714;SDS011;28351;51.480;5.706;2023-04-29T04:20:00;47.75;;;19.00;;
42714;SDS011;28351;51.480;5.706;2023-04-29T04:22:25;44.35;;;18.48;;
42714;SDS011;28351;51.480;5.706;2023-04-29T04:24:53;40.83;;;18.65;;
42714;SDS011;28351;51.480;5.706;2023-04-29T04:27:19;40.17;;;18.42;;
42714;SDS011;28351;51.480;5.706;2023-04-29T04:29:45;49.60;;;19.60;;
42714;SDS011;28351;51.480;5.706;2023-04-29T04:32:11;49.20;;;19.40;;
42714;SDS011;28351;51.480;5.706;2023-04-29T04:34:36;54.28;;;20.10;;
42714;SDS011;28351;51.480;5.706;2023-04-29T04:39:30;51.35;;;19.13;;
42714;SDS011;28351;51.480;5.706;2023-04-29T04:41:56;49.80;;;20.35;;
42714;SDS011;28351;51.480;5.706;2023-04-29T04:44:22;48.78;;;20.60;;
42714;SDS011;28351;51.480;5.706;2023-04-29T04:46:49;47.17;;;19.90;;
42714;SDS011;28351;51.480;5.706;2023-04-29T04:49:14;47.40;;;20.10;;
42714;SDS011;28351;51.480;5.706;2023-04-29T04:51:42;49.33;;;20.08;;
42714;SDS011;28351;51.480;5.706;2023-04-29T04:54:09;53.60;;;20.50;;
42714;SDS011;28351;51.480;5.706;2023-04-29T04:56:35;51.67;;;21.30;;
42714;SDS011;28351;51.480;5.706;2023-04-29T04:59:01;48.65;;;18.83;;
42714;SDS011;28351;51.480;5.706;2023-04-29T05:01:27;45.83;;;19.85;;
42714;SDS011;28351;51.480;5.706;2023-04-29T05:03:54;53.03;;;19.70;;
42714;SDS011;28351;51.480;5.706;2023-04-29T05:06:27;45.83;;;19.58;;
42714;SDS011;28351;51.480;5.706;2023-04-29T05:08:53;47.35;;;19.52;;
42714;SDS011;28351;51.480;5.706;2023-04-29T05:11:21;44.67;;;18.40;;
42714;SDS011;28351;51.480;5.706;2023-04-29T05:13:47;43.47;;;19.90;;
42714;SDS011;28351;51.480;5.706;2023-04-29T05:16:13;44.35;;;19.90;;
42714;SDS011;28351;51.480;5.706;2023-04-29T05:18:39;39.53;;;18.52;;
42714;SDS011;28351;51.480;5.706;2023-04-29T05:21:04;41.63;;;18.35;;
42714;SDS011;28351;51.480;5.706;2023-04-29T05:23:30;43.05;;;18.35;;
42714;SDS011;28351;51.480;5.706;2023-04-29T05:25:56;39.95;;;17.88;;
42714;SDS011;28351;51.480;5.706;2023-04-29T05:28:21;41.08;;;17.88;;
42714;SDS011;28351;51.480;5.706;2023-04-29T05:30:49;47.70;;;18.75;;
42714;SDS011;28351;51.480;5.706;2023-04-29T05:33:16;40.20;;;18.77;;
42714;SDS011;28351;51.480;5.706;2023-04-29T05:35:41;41.95;;;17.70;;
42714;SDS011;28351;51.480;5.706;2023-04-29T05:38:07;38.30;;;17.15;;
42714;SDS011;28351;51.480;5.706;2023-04-29T05:40:33;42.25;;;19.35;;
42714;SDS011;28351;51.480;5.706;2023-04-29T05:42:58;43.83;;;17.70;;
42714;SDS011;28351;51.480;5.706;2023-04-29T05:45:24;41.83;;;19.00;;
42714;SDS011;28351;51.480;5.706;2023-04-29T05:47:50;39.22;;;17.38;;
42714;SDS011;28351;51.480;5.706;2023-04-29T05:50:18;41.78;;;18.13;;
42714;SDS011;28351;51.480;5.706;2023-04-29T05:52:44;44.30;;;18.23;;
42714;SDS011;28351;51.480;5.706;2023-04-29T05:55:09;40.92;;;17.83;;
42714;SDS011;28351;51.480;5.706;2023-04-29T05:57:35;46.25;;;19.13;;
42714;SDS011;28351;51.480;5.706;2023-04-29T06:00:00;43.53;;;17.88;;
42714;SDS011;28351;51.480;5.706;2023-04-29T06:02:28;41.38;;;19.17;;
42714;SDS011;28351;51.480;5.706;2023-04-29T06:04:53;40.63;;;19.33;;
42714;SDS011;28351;51.480;5.706;2023-04-29T06:09:48;39.70;;;17.55;;
42714;SDS011;28351;51.480;5.706;2023-04-29T06:12:14;42.55;;;18.98;;
42714;SDS011;28351;51.480;5.706;2023-04-29T06:14:40;42.72;;;18.08;;
42714;SDS011;28351;51.480;5.706;2023-04-29T06:17:05;46.38;;;19.25;;
42714;SDS011;28351;51.480;5.706;2023-04-29T06:19:31;41.90;;;18.27;;
42714;SDS011;28351;51.480;5.706;2023-04-29T06:21:57;43.15;;;18.55;;
42714;SDS011;28351;51.480;5.706;2023-04-29T06:24:23;37.47;;;18.85;;
42714;SDS011;28351;51.480;5.706;2023-04-29T06:26:49;43.10;;;19.88;;
42714;SDS011;28351;51.480;5.706;2023-04-29T06:29:15;42.38;;;19.00;;
42714;SDS011;28351;51.480;5.706;2023-04-29T06:31:41;37.70;;;17.70;;
42714;SDS011;28351;51.480;5.706;2023-04-29T06:34:06;37.65;;;17.48;;
42714;SDS011;28351;51.480;5.706;2023-04-29T06:36:32;39.30;;;18.05;;
42714;SDS011;28351;51.480;5.706;2023-04-29T06:38:58;39.30;;;18.10;;
42714;SDS011;28351;51.480;5.706;2023-04-29T06:41:23;41.08;;;17.63;;
42714;SDS011;28351;51.480;5.706;2023-04-29T06:43:49;41.90;;;17.80;;
42714;SDS011;28351;51.480;5.706;2023-04-29T06:46:15;42.70;;;18.80;;
42714;SDS011;28351;51.480;5.706;2023-04-29T06:48:41;38.80;;;17.83;;
42714;SDS011;28351;51.480;5.706;2023-04-29T06:51:06;33.95;;;16.38;;
42714;SDS011;28351;51.480;5.706;2023-04-29T06:53:32;38.95;;;17.85;;
42714;SDS011;28351;51.480;5.706;2023-04-29T06:55:58;30.80;;;17.35;;
42714;SDS011;28351;51.480;5.706;2023-04-29T06:58:23;36.60;;;17.00;;
42714;SDS011;28351;51.480;5.706;2023-04-29T07:00:49;39.33;;;18.55;;
42714;SDS011;28351;51.480;5.706;2023-04-29T07:03:16;37.63;;;18.13;;
42714;SDS011;28351;51.480;5.706;2023-04-29T07:05:42;37.58;;;16.80;;
42714;SDS011;28351;51.480;5.706;2023-04-29T07:08:09;35.35;;;18.23;;
42714;SDS011;28351;51.480;5.706;2023-04-29T07:10:36;39.05;;;17.90;;
42714;SDS011;28351;51.480;5.706;2023-04-29T07:13:02;38.95;;;18.08;;
42714;SDS011;28351;51.480;5.706;2023-04-29T07:15:28;36.03;;;17.63;;
42714;SDS011;28351;51.480;5.706;2023-04-29T07:17:55;40.05;;;17.15;;
42714;SDS011;28351;51.480;5.706;2023-04-29T07:20:20;33.70;;;15.75;;
42714;SDS011;28351;51.480;5.706;2023-04-29T07:22:46;31.70;;;16.70;;
42714;SDS011;28351;51.480;5.706;2023-04-29T07:25:12;36.08;;;16.70;;
42714;SDS011;28351;51.480;5.706;2023-04-29T07:27:38;30.15;;;16.23;;
42714;SDS011;28351;51.480;5.706;2023-04-29T07:30:04;35.78;;;17.65;;
42714;SDS011;28351;51.480;5.706;2023-04-29T07:32:30;30.15;;;15.85;;
42714;SDS011;28351;51.480;5.706;2023-04-29T07:34:57;31.08;;;16.83;;
42714;SDS011;28351;51.480;5.706;2023-04-29T07:37:23;34.42;;;16.63;;
42714;SDS011;28351;51.480;5.706;2023-04-29T07:39:49;35.72;;;15.98;;
42714;SDS011;28351;51.480;5.706;2023-04-29T07:42:15;27.98;;;14.95;;
42714;SDS011;28351;51.480;5.706;2023-04-29T07:44:49;30.42;;;15.77;;
42714;SDS011;28351;51.480;5.706;2023-04-29T07:47:14;28.55;;;15.15;;
42714;SDS011;28351;51.480;5.706;2023-04-29T07:49:40;27.85;;;14.45;;
42714;SDS011;28351;51.480;5.706;2023-04-29T07:52:06;25.98;;;14.68;;
42714;SDS011;28351;51.480;5.706;2023-04-29T07:54:41;24.40;;;13.77;;
42714;SDS011;28351;51.480;5.706;2023-04-29T07:57:06;21.98;;;12.77;;
42714;SDS011;28351;51.480;5.706;2023-04-29T07:59:32;24.17;;;14.95;;
42714;SDS011;28351;51.480;5.706;2023-04-29T08:01:57;25.50;;;13.07;;
42714;SDS011;28351;51.480;5.706;2023-04-29T08:04:23;22.83;;;12.98;;
42714;SDS011;28351;51.480;5.706;2023-04-29T08:06:49;23.70;;;13.45;;
42714;SDS011;28351;51.480;5.706;2023-04-29T08:09:15;23.38;;;12.75;;
42714;SDS011;28351;51.480;5.706;2023-04-29T08:11:41;24.85;;;14.02;;
42714;SDS011;28351;51.480;5.706;2023-04-29T08:14:07;18.05;;;11.52;;
42714;SDS011;28351;51.480;5.706;2023-04-29T08:16:33;20.63;;;12.05;;
42714;SDS011;28351;51.480;5.706;2023-04-29T08:18:58;24.73;;;12.98;;
42714;SDS011;28351;51.480;5.706;2023-04-29T08:21:24;24.52;;;13.88;;
42714;SDS011;28351;51.480;5.706;2023-04-29T08:23:51;23.05;;;13.20;;
42714;SDS011;28351;51.480;5.706;2023-04-29T08:26:17;23.52;;;13.15;;
42714;SDS011;28351;51.480;5.706;2023-04-29T08:28:43;26.02;;;13.43;;
42714;SDS011;28351;51.480;5.706;2023-04-29T08:31:15;23.40;;;13.18;;
42714;SDS011;28351;51.480;5.706;2023-04-29T08:33:44;24.13;;;13.45;;
42714;SDS011;28351;51.480;5.706;2023-04-29T08:36:10;25.65;;;13.45;;
42714;SDS011;28351;51.480;5.706;2023-04-29T08:38:36;21.52;;;12.73;;
42714;SDS011;28351;51.480;5.706;2023-04-29T08:41:01;23.83;;;12.73;;
42714;SDS011;28351;51.480;5.706;2023-04-29T08:43:27;24.48;;;13.00;;
42714;SDS011;28351;51.480;5.706;2023-04-29T08:45:53;22.02;;;12.93;;
42714;SDS011;28351;51.480;5.706;2023-04-29T08:48:21;21.15;;;13.40;;
42714;SDS011;28351;51.480;5.706;2023-04-29T08:50:48;24.67;;;13.35;;
42714;SDS011;28351;51.480;5.706;2023-04-29T08:53:13;25.92;;;14.43;;
42714;SDS011;28351;51.480;5.706;2023-04-29T08:55:45;26.05;;;13.73;;
42714;SDS011;28351;51.480;5.706;2023-04-29T08:58:12;25.20;;;14.43;;
42714;SDS011;28351;51.480;5.706;2023-04-29T09:00:39;23.80;;;13.68;;
42714;SDS011;28351;51.480;5.706;2023-04-29T09:03:16;21.25;;;12.88;;
42714;SDS011;28351;51.480;5.706;2023-04-29T09:06:01;19.48;;;12.20;;
42714;SDS011;28351;51.480;5.706;2023-04-29T09:08:28;20.03;;;12.03;;
42714;SDS011;28351;51.480;5.706;2023-04-29T09:10:54;21.08;;;12.90;;
42714;SDS011;28351;51.480;5.706;2023-04-29T09:13:25;21.75;;;12.07;;
42714;SDS011;28351;51.480;5.706;2023-04-29T09:15:52;19.80;;;11.65;;
42714;SDS011;28351;51.480;5.706;2023-04-29T09:23:36;17.77;;;11.07;;
42714;SDS011;28351;51.480;5.706;2023-04-29T09:26:02;18.92;;;11.75;;
42714;SDS011;28351;51.480;5.706;2023-04-29T09:28:28;18.50;;;11.02;;
42714;SDS011;28351;51.480;5.706;2023-04-29T09:30:56;19.33;;;12.48;;
42714;SDS011;28351;51.480;5.706;2023-04-29T09:33:22;18.60;;;11.45;;
42714;SDS011;28351;51.480;5.706;2023-04-29T09:35:47;20.25;;;11.57;;
42714;SDS011;28351;51.480;5.706;2023-04-29T09:38:14;20.83;;;11.65;;
42714;SDS011;28351;51.480;5.706;2023-04-29T09:40:41;20.45;;;11.02;;
42714;SDS011;28351;51.480;5.706;2023-04-29T09:43:15;17.70;;;11.15;;
42714;SDS011;28351;51.480;5.706;2023-04-29T09:45:45;19.02;;;11.80;;
42714;SDS011;28351;51.480;5.706;2023-04-29T09:48:11;20.13;;;11.02;;
42714;SDS011;28351;51.480;5.706;2023-04-29T09:50:39;16.08;;;10.98;;
42714;SDS011;28351;51.480;5.706;2023-04-29T09:53:09;18.40;;;11.77;;
42714;SDS011;28351;51.480;5.706;2023-04-29T09:58:30;18.20;;;11.13;;
42714;SDS011;28351;51.480;5.706;2023-04-29T10:01:04;18.42;;;11.60;;
42714;SDS011;28351;51.480;5.706;2023-04-29T10:03:31;19.58;;;11.77;;
42714;SDS011;28351;51.480;5.706;2023-04-29T10:05:58;21.50;;;11.47;;
42714;SDS011;28351;51.480;5.706;2023-04-29T10:08:25;15.48;;;10.25;;
42714;SDS011;28351;51.480;5.706;2023-04-29T10:10:52;19.95;;;10.85;;
42714;SDS011;28351;51.480;5.706;2023-04-29T10:13:24;21.88;;;10.88;;
42714;SDS011;28351;51.480;5.706;2023-04-29T10:16:11;19.38;;;10.80;;
42714;SDS011;28351;51.480;5.706;2023-04-29T10:18:53;18.08;;;11.55;;
42714;SDS011;28351;51.480;5.706;2023-04-29T10:21:21;20.98;;;10.45;;
42714;SDS011;28351;51.480;5.706;2023-04-29T10:23:58;17.00;;;10.00;;
42714;SDS011;28351;51.480;5.706;2023-04-29T10:26:27;19.80;;;10.45;;
42714;SDS011;28351;51.480;5.706;2023-04-29T10:28:57;18.80;;;11.02;;
42714;SDS011;28351;51.480;5.706;2023-04-29T10:31:27;18.55;;;10.55;;
42714;SDS011;28351;51.480;5.706;2023-04-29T10:33:54;17.65;;;9.95;;
42714;SDS011;28351;51.480;5.706;2023-04-29T10:36:22;17.30;;;9.52;;
42714;SDS011;28351;51.480;5.706;2023-04-29T10:38:50;17.15;;;10.35;;
42714;SDS011;28351;51.480;5.706;2023-04-29T10:41:24;15.35;;;9.07;;
42714;SDS011;28351;51.480;5.706;2023-04-29T10:43:52;16.50;;;9.88;;
42714;SDS011;28351;51.480;5.706;2023-04-29T10:46:20;14.07;;;8.65;;
42714;SDS011;28351;51.480;5.706;2023-04-29T10:48:48;16.27;;;9.63;;
42714;SDS011;28351;51.480;5.706;2023-04-29T10:54:14;17.85;;;9.82;;
42714;SDS011;28351;51.480;5.706;2023-04-29T10:59:21;15.02;;;8.82;;
42714;SDS011;28351;51.480;5.706;2023-04-29T11:02:08;12.38;;;8.52;;
42714;SDS011;28351;51.480;5.706;2023-04-29T11:04:34;15.55;;;9.10;;
42714;SDS011;28351;51.480;5.706;2023-04-29T11:07:36;15.38;;;8.77;;
42714;SDS011;28351;51.480;5.706;2023-04-29T11:10:02;13.45;;;8.95;;
42714;SDS011;28351;51.480;5.706;2023-04-29T11:12:28;16.13;;;8.95;;
42714;SDS011;28351;51.480;5.706;2023-04-29T11:14:53;13.23;;;8.32;;
42714;SDS011;28351;51.480;5.706;2023-04-29T11:17:27;11.77;;;7.85;;
42714;SDS011;28351;51.480;5.706;2023-04-29T11:20:00;11.30;;;7.00;;
42714;SDS011;28351;51.480;5.706;2023-04-29T11:22:26;11.15;;;7.68;;
42714;SDS011;28351;51.480;5.706;2023-04-29T11:24:58;11.23;;;8.00;;
42714;SDS011;28351;51.480;5.706;2023-04-29T11:27:28;12.85;;;7.63;;
42714;SDS011;28351;51.480;5.706;2023-04-29T11:30:02;12.55;;;7.78;;
42714;SDS011;28351;51.480;5.706;2023-04-29T11:32:30;9.77;;;6.97;;
42714;SDS011;28351;51.480;5.706;2023-04-29T11:37:36;13.85;;;7.82;;
42714;SDS011;28351;51.480;5.706;2023-04-29T11:40:04;10.98;;;7.20;;
42714;SDS011;28351;51.480;5.706;2023-04-29T11:42:33;12.65;;;6.82;;
42714;SDS011;28351;51.480;5.706;2023-04-29T11:45:00;11.98;;;6.80;;
42714;SDS011;28351;51.480;5.706;2023-04-29T11:47:29;10.95;;;6.60;;
42714;SDS011;28351;51.480;5.706;2023-04-29T11:50:04;12.57;;;7.28;;
42714;SDS011;28351;51.480;5.706;2023-04-29T11:52:32;12.82;;;7.88;;
42714;SDS011;28351;51.480;5.706;2023-04-29T11:55:05;11.15;;;7.00;;
42714;SDS011;28351;51.480;5.706;2023-04-29T11:57:33;14.43;;;8.48;;
42714;SDS011;28351;51.480;5.706;2023-04-29T11:59:59;12.82;;;6.97;;
42714;SDS011;28351;51.480;5.706;2023-04-29T12:02:31;14.27;;;7.78;;
42714;SDS011;28351;51.480;5.706;2023-04-29T12:05:05;10.90;;;7.10;;
42714;SDS011;28351;51.480;5.706;2023-04-29T12:07:31;11.88;;;7.25;;
42714;SDS011;28351;51.480;5.706;2023-04-29T12:09:57;12.43;;;6.85;;
42714;SDS011;28351;51.480;5.706;2023-04-29T12:12:24;10.68;;;6.82;;
42714;SDS011;28351;51.480;5.706;2023-04-29T12:14:51;10.18;;;6.70;;
42714;SDS011;28351;51.480;5.706;2023-04-29T12:17:17;10.52;;;6.50;;
42714;SDS011;28351;51.480;5.706;2023-04-29T12:19:43;9.32;;;6.07;;
42714;SDS011;28351;51.480;5.706;2023-04-29T12:22:10;10.80;;;6.35;;
42714;SDS011;28351;51.480;5.706;2023-04-29T12:24:36;9.07;;;6.60;;
42714;SDS011;28351;51.480;5.706;2023-04-29T12:27:03;10.40;;;6.20;;
42714;SDS011;28351;51.480;5.706;2023-04-29T12:29:32;9.93;;;6.13;;
42714;SDS011;28351;51.480;5.706;2023-04-29T12:31:59;10.15;;;6.55;;
42714;SDS011;28351;51.480;5.706;2023-04-29T12:34:27;9.95;;;5.75;;
42714;SDS011;28351;51.480;5.706;2023-04-29T12:36:54;8.85;;;6.00;;
42714;SDS011;28351;51.480;5.706;2023-04-29T12:39:24;9.07;;;6.05;;
42714;SDS011;28351;51.480;5.706;2023-04-29T12:41:59;7.53;;;5.85;;
42714;SDS011;28351;51.480;5.706;2023-04-29T12:44:34;11.98;;;6.28;;
42714;SDS011;28351;51.480;5.706;2023-04-29T12:47:08;9.25;;;5.95;;
42714;SDS011;28351;51.480;5.706;2023-04-29T12:49:34;9.98;;;6.15;;
42714;SDS011;28351;51.480;5.706;2023-04-29T12:52:01;11.10;;;6.05;;
42714;SDS011;28351;51.480;5.706;2023-04-29T12:54:28;10.48;;;6.15;;
42714;SDS011;28351;51.480;5.706;2023-04-29T12:56:54;12.70;;;6.57;;
42714;SDS011;28351;51.480;5.706;2023-04-29T12:59:20;8.82;;;5.55;;
42714;SDS011;28351;51.480;5.706;2023-04-29T13:01:45;11.57;;;5.72;;
42714;SDS011;28351;51.480;5.706;2023-04-29T13:04:14;9.18;;;6.00;;
42714;SDS011;28351;51.480;5.706;2023-04-29T13:06:40;11.25;;;5.65;;
42714;SDS011;28351;51.480;5.706;2023-04-29T13:09:11;9.40;;;6.05;;
42714;SDS011;28351;51.480;5.706;2023-04-29T13:11:37;9.57;;;5.90;;
42714;SDS011;28351;51.480;5.706;2023-04-29T13:14:03;10.18;;;6.15;;
42714;SDS011;28351;51.480;5.706;2023-04-29T13:16:31;9.95;;;5.88;;
42714;SDS011;28351;51.480;5.706;2023-04-29T13:18:57;8.63;;;5.65;;
42714;SDS011;28351;51.480;5.706;2023-04-29T13:21:23;10.73;;;5.93;;
42714;SDS011;28351;51.480;5.706;2023-04-29T13:23:51;10.68;;;6.00;;
42714;SDS011;28351;51.480;5.706;2023-04-29T13:26:17;9.00;;;6.15;;
42714;SDS011;28351;51.480;5.706;2023-04-29T13:28:43;8.18;;;5.90;;
42714;SDS011;28351;51.480;5.706;2023-04-29T13:31:09;9.77;;;6.22;;
42714;SDS011;28351;51.480;5.706;2023-04-29T13:33:34;10.23;;;6.93;;
42714;SDS011;28351;51.480;5.706;2023-04-29T13:36:00;11.48;;;6.70;;
42714;SDS011;28351;51.480;5.706;2023-04-29T13:38:26;10.77;;;6.70;;
42714;SDS011;28351;51.480;5.706;2023-04-29T13:40:52;8.90;;;6.03;;
42714;SDS011;28351;51.480;5.706;2023-04-29T13:43:17;10.32;;;6.45;;
42714;SDS011;28351;51.480;5.706;2023-04-29T13:45:43;11.00;;;6.00;;
42714;SDS011;28351;51.480;5.706;2023-04-29T13:48:08;10.07;;;5.55;;
42714;SDS011;28351;51.480;5.706;2023-04-29T13:50:34;9.18;;;5.45;;
42714;SDS011;28351;51.480;5.706;2023-04-29T13:53:00;9.65;;;5.50;;
42714;SDS011;28351;51.480;5.706;2023-04-29T13:55:26;9.60;;;5.78;;
42714;SDS011;28351;51.480;5.706;2023-04-29T13:57:59;11.23;;;5.93;;
42714;SDS011;28351;51.480;5.706;2023-04-29T14:00:24;7.95;;;5.32;;
42714;SDS011;28351;51.480;5.706;2023-04-29T14:02:50;11.25;;;5.53;;
42714;SDS011;28351;51.480;5.706;2023-04-29T14:05:16;8.20;;;5.60;;
42714;SDS011;28351;51.480;5.706;2023-04-29T14:07:42;8.40;;;5.18;;
42714;SDS011;28351;51.480;5.706;2023-04-29T14:10:10;8.13;;;4.97;;
42714;SDS011;28351;51.480;5.706;2023-04-29T14:12:36;7.38;;;4.97;;
42714;SDS011;28351;51.480;5.706;2023-04-29T14:15:01;8.23;;;5.05;;
42714;SDS011;28351;51.480;5.706;2023-04-29T14:17:27;5.82;;;4.63;;
42714;SDS011;28351;51.480;5.706;2023-04-29T14:19:53;7.95;;;5.15;;
42714;SDS011;28351;51.480;5.706;2023-04-29T14:22:18;11.38;;;5.85;;
42714;SDS011;28351;51.480;5.706;2023-04-29T14:24:45;7.80;;;5.60;;
42714;SDS011;28351;51.480;5.706;2023-04-29T14:27:10;8.93;;;5.22;;
42714;SDS011;28351;51.480;5.706;2023-04-29T14:29:36;6.90;;;5.05;;
42714;SDS011;28351;51.480;5.706;2023-04-29T14:32:02;8.32;;;5.03;;
42714;SDS011;28351;51.480;5.706;2023-04-29T14:34:27;6.88;;;4.88;;
42714;SDS011;28351;51.480;5.706;2023-04-29T14:36:53;7.28;;;4.55;;
42714;SDS011;28351;51.480;5.706;2023-04-29T14:39:19;8.55;;;4.47;;
42714;SDS011;28351;51.480;5.706;2023-04-29T14:41:44;7.63;;;3.97;;
42714;SDS011;28351;51.480;5.706;2023-04-29T14:44:11;6.57;;;4.22;;
42714;SDS011;28351;51.480;5.706;2023-04-29T14:46:36;9.05;;;4.80;;
42714;SDS011;28351;51.480;5.706;2023-04-29T14:49:02;6.47;;;4.10;;
42714;SDS011;28351;51.480;5.706;2023-04-29T14:51:28;5.72;;;3.70;;
42714;SDS011;28351;51.480;5.706;2023-04-29T14:53:55;6.90;;;4.35;;
42714;SDS011;28351;51.480;5.706;2023-04-29T14:56:20;5.78;;;4.40;;
42714;SDS011;28351;51.480;5.706;2023-04-29T14:58:46;6.72;;;4.00;;
42714;SDS011;28351;51.480;5.706;2023-04-29T15:01:12;5.07;;;4.18;;
42714;SDS011;28351;51.480;5.706;2023-04-29T15:03:37;6.05;;;4.20;;
42714;SDS011;28351;51.480;5.706;2023-04-29T15:06:03;7.25;;;4.10;;